sensor_id;sensor_type;location;lat;lon;timestamp;P1;durP1;ratioP1;P2;durP2;ratioP2
1354;SDS011;671;48.972;9.276;2022-10-04T00:04:30;0.50;;;0.50;;
1354;SDS011;671;48.972;9.276;2022-10-04T00:10:20;0.50;;;0.50;;
1354;SDS011;671;48.972;9.276;2022-10-04T00:12:51;0.60;;;0.60;;
1354;SDS011;671;48.972;9.276;2022-10-04T00:15:29;0.50;;;0.50;;
1354;SDS011;671;48.972;9.276;2022-10-04T00:23:26;0.50;;;0.50;;
1354;SDS011;671;48.972;9.276;2022-10-04T00:26:03;0.40;;;0.40;;
1354;SDS011;671;48.972;9.276;2022-10-04T00:31:09;0.40;;;0.40;;
1354;SDS011;671;48.972;9.276;2022-10-04T00:44:23;0.40;;;0.40;;
1354;SDS011;671;48.972;9.276;2022-10-04T00:46:53;0.50;;;0.50;;
1354;SDS011;671;48.972;9.276;2022-10-04T00:49:22;0.40;;;0.40;;
1354;SDS011;671;48.972;9.276;2022-10-04T00:52:02;0.40;;;0.40;;
1354;SDS011;671;48.972;9.276;2022-10-04T00:54:41;0.40;;;0.40;;
1354;SDS011;671;48.972;9.276;2022-10-04T00:57:19;0.53;;;0.53;;
1354;SDS011;671;48.972;9.276;2022-10-04T00:59:54;0.50;;;0.50;;
1354;SDS011;671;48.972;9.276;2022-10-04T01:02:30;0.40;;;0.33;;
1354;SDS011;671;48.972;9.276;2022-10-04T01:05:13;0.50;;;0.50;;
1354;SDS011;671;48.972;9.276;2022-10-04T01:10:51;0.50;;;0.50;;
1354;SDS011;671;48.972;9.276;2022-10-04T01:24:36;0.50;;;0.50;;
1354;SDS011;671;48.972;9.276;2022-10-04T01:27:06;0.30;;;0.30;;
1354;SDS011;671;48.972;9.276;2022-10-04T01:30:02;0.33;;;0.33;;
1354;SDS011;671;48.972;9.276;2022-10-04T01:32:32;0.50;;;0.50;;
1354;SDS011;671;48.972;9.276;2022-10-04T01:34:58;0.40;;;0.40;;
1354;SDS011;671;48.972;9.276;2022-10-04T01:37:25;0.40;;;0.40;;
1354;SDS011;671;48.972;9.276;2022-10-04T01:39:52;0.30;;;0.30;;
1354;SDS011;671;48.972;9.276;2022-10-04T01:42:20;0.50;;;0.50;;
1354;SDS011;671;48.972;9.276;2022-10-04T01:47:34;0.40;;;0.40;;
1354;SDS011;671;48.972;9.276;2022-10-04T01:50:19;0.30;;;0.30;;
1354;SDS011;671;48.972;9.276;2022-10-04T01:52:55;0.40;;;0.40;;
1354;SDS011;671;48.972;9.276;2022-10-04T01:55:33;0.37;;;0.37;;
1354;SDS011;671;48.972;9.276;2022-10-04T01:58:08;0.40;;;0.40;;
1354;SDS011;671;48.972;9.276;2022-10-04T02:00:41;0.30;;;0.30;;
1354;SDS011;671;48.972;9.276;2022-10-04T02:03:25;0.30;;;0.30;;
1354;SDS011;671;48.972;9.276;2022-10-04T02:06:00;0.57;;;0.57;;
1354;SDS011;671;48.972;9.276;2022-10-04T02:08:30;0.40;;;0.40;;
1354;SDS011;671;48.972;9.276;2022-10-04T02:11:00;0.50;;;0.50;;
1354;SDS011;671;48.972;9.276;2022-10-04T02:13:31;0.57;;;0.57;;
1354;SDS011;671;48.972;9.276;2022-10-04T02:16:03;0.40;;;0.37;;
1354;SDS011;671;48.972;9.276;2022-10-04T02:18:35;0.40;;;0.40;;
1354;SDS011;671;48.972;9.276;2022-10-04T02:21:05;0.40;;;0.40;;
1354;SDS011;671;48.972;9.276;2022-10-04T02:23:32;0.50;;;0.50;;
1354;SDS011;671;48.972;9.276;2022-10-04T02:26:05;0.43;;;0.43;;
1354;SDS011;671;48.972;9.276;2022-10-04T02:28:33;0.50;;;0.50;;
1354;SDS011;671;48.972;9.276;2022-10-04T02:31:00;0.40;;;0.40;;
1354;SDS011;671;48.972;9.276;2022-10-04T02:33:48;0.47;;;0.47;;
1354;SDS011;671;48.972;9.276;2022-10-04T02:36:17;0.40;;;0.40;;
1354;SDS011;671;48.972;9.276;2022-10-04T02:39:11;0.50;;;0.50;;
1354;SDS011;671;48.972;9.276;2022-10-04T02:44:23;0.50;;;0.50;;
1354;SDS011;671;48.972;9.276;2022-10-04T02:46:55;0.50;;;0.50;;
1354;SDS011;671;48.972;9.276;2022-10-04T02:57:41;0.40;;;0.40;;
1354;SDS011;671;48.972;9.276;2022-10-04T03:02:41;0.60;;;0.60;;
1354;SDS011;671;48.972;9.276;2022-10-04T03:06:19;0.40;;;0.40;;
1354;SDS011;671;48.972;9.276;2022-10-04T03:11:11;0.40;;;0.40;;
1354;SDS011;671;48.972;9.276;2022-10-04T03:13:43;0.53;;;0.53;;
1354;SDS011;671;48.972;9.276;2022-10-04T03:16:12;0.50;;;0.50;;
1354;SDS011;671;48.972;9.276;2022-10-04T03:18:38;0.50;;;0.50;;
1354;SDS011;671;48.972;9.276;2022-10-04T03:21:05;0.40;;;0.40;;
1354;SDS011;671;48.972;9.276;2022-10-04T03:23:34;0.50;;;0.50;;
1354;SDS011;671;48.972;9.276;2022-10-04T03:26:13;0.40;;;0.40;;
1354;SDS011;671;48.972;9.276;2022-10-04T03:28:44;0.40;;;0.40;;
1354;SDS011;671;48.972;9.276;2022-10-04T03:31:14;0.40;;;0.40;;
1354;SDS011;671;48.972;9.276;2022-10-04T03:33:41;0.40;;;0.40;;
1354;SDS011;671;48.972;9.276;2022-10-04T03:36:11;0.53;;;0.53;;
1354;SDS011;671;48.972;9.276;2022-10-04T03:38:41;0.47;;;0.47;;
1354;SDS011;671;48.972;9.276;2022-10-04T03:41:09;0.40;;;0.40;;
1354;SDS011;671;48.972;9.276;2022-10-04T03:43:41;0.50;;;0.50;;
1354;SDS011;671;48.972;9.276;2022-10-04T03:46:09;0.40;;;0.40;;
1354;SDS011;671;48.972;9.276;2022-10-04T03:48:42;0.40;;;0.40;;
1354;SDS011;671;48.972;9.276;2022-10-04T03:51:21;0.40;;;0.40;;
1354;SDS011;671;48.972;9.276;2022-10-04T03:53:50;0.40;;;0.40;;
1354;SDS011;671;48.972;9.276;2022-10-04T03:56:21;0.40;;;0.40;;
1354;SDS011;671;48.972;9.276;2022-10-04T03:58:48;0.40;;;0.40;;
1354;SDS011;671;48.972;9.276;2022-10-04T04:06:40;0.50;;;0.50;;
1354;SDS011;671;48.972;9.276;2022-10-04T04:09:58;0.30;;;0.30;;
1354;SDS011;671;48.972;9.276;2022-10-04T04:12:17;0.30;;;0.30;;
1354;SDS011;671;48.972;9.276;2022-10-04T04:14:50;0.50;;;0.50;;
1354;SDS011;671;48.972;9.276;2022-10-04T04:19:51;0.30;;;0.30;;
1354;SDS011;671;48.972;9.276;2022-10-04T04:22:23;0.30;;;0.30;;
1354;SDS011;671;48.972;9.276;2022-10-04T04:24:49;0.30;;;0.30;;
1354;SDS011;671;48.972;9.276;2022-10-04T04:27:16;0.37;;;0.37;;
1354;SDS011;671;48.972;9.276;2022-10-04T04:29:49;0.30;;;0.30;;
1354;SDS011;671;48.972;9.276;2022-10-04T04:32:31;0.47;;;0.47;;
1354;SDS011;671;48.972;9.276;2022-10-04T04:35:05;0.50;;;0.50;;
1354;SDS011;671;48.972;9.276;2022-10-04T04:37:34;0.33;;;0.33;;
1354;SDS011;671;48.972;9.276;2022-10-04T04:40:20;0.40;;;0.40;;
1354;SDS011;671;48.972;9.276;2022-10-04T04:42:49;0.40;;;0.40;;
1354;SDS011;671;48.972;9.276;2022-10-04T04:45:23;0.47;;;0.47;;
1354;SDS011;671;48.972;9.276;2022-10-04T04:47:54;0.30;;;0.20;;
1354;SDS011;671;48.972;9.276;2022-10-04T04:50:27;0.30;;;0.30;;
1354;SDS011;671;48.972;9.276;2022-10-04T04:53:05;0.43;;;0.43;;
1354;SDS011;671;48.972;9.276;2022-10-04T04:55:38;0.30;;;0.30;;
1354;SDS011;671;48.972;9.276;2022-10-04T04:58:06;0.53;;;0.53;;
1354;SDS011;671;48.972;9.276;2022-10-04T05:00:37;0.40;;;0.40;;
1354;SDS011;671;48.972;9.276;2022-10-04T05:03:06;0.40;;;0.40;;
1354;SDS011;671;48.972;9.276;2022-10-04T05:05:44;0.40;;;0.40;;
1354;SDS011;671;48.972;9.276;2022-10-04T05:08:20;0.30;;;0.30;;
1354;SDS011;671;48.972;9.276;2022-10-04T05:13:32;0.40;;;0.40;;
1354;SDS011;671;48.972;9.276;2022-10-04T05:16:13;0.50;;;0.50;;
1354;SDS011;671;48.972;9.276;2022-10-04T05:18:43;0.47;;;0.47;;
1354;SDS011;671;48.972;9.276;2022-10-04T05:21:11;0.43;;;0.43;;
1354;SDS011;671;48.972;9.276;2022-10-04T05:23:50;0.33;;;0.33;;
1354;SDS011;671;48.972;9.276;2022-10-04T05:26:20;0.40;;;0.40;;
1354;SDS011;671;48.972;9.276;2022-10-04T05:28:54;0.40;;;0.40;;
1354;SDS011;671;48.972;9.276;2022-10-04T05:31:31;0.30;;;0.30;;
1354;SDS011;671;48.972;9.276;2022-10-04T05:34:05;0.33;;;0.33;;
1354;SDS011;671;48.972;9.276;2022-10-04T05:36:53;0.40;;;0.40;;
1354;SDS011;671;48.972;9.276;2022-10-04T05:40:00;0.40;;;0.40;;
1354;SDS011;671;48.972;9.276;2022-10-04T05:42:38;0.50;;;0.50;;
1354;SDS011;671;48.972;9.276;2022-10-04T05:45:15;0.37;;;0.37;;
1354;SDS011;671;48.972;9.276;2022-10-04T05:47:42;0.50;;;0.50;;
1354;SDS011;671;48.972;9.276;2022-10-04T05:50:45;0.33;;;0.33;;
1354;SDS011;671;48.972;9.276;2022-10-04T06:07:08;0.40;;;0.40;;
1354;SDS011;671;48.972;9.276;2022-10-04T06:23:55;0.30;;;0.30;;
1354;SDS011;671;48.972;9.276;2022-10-04T06:26:34;0.47;;;0.47;;
1354;SDS011;671;48.972;9.276;2022-10-04T06:29:38;0.57;;;0.57;;
1354;SDS011;671;48.972;9.276;2022-10-04T06:32:17;0.40;;;0.40;;
1354;SDS011;671;48.972;9.276;2022-10-04T06:45:53;0.30;;;0.30;;
1354;SDS011;671;48.972;9.276;2022-10-04T07:01:31;0.40;;;0.40;;
1354;SDS011;671;48.972;9.276;2022-10-04T07:13:33;0.40;;;0.40;;
1354;SDS011;671;48.972;9.276;2022-10-04T07:21:26;0.50;;;0.50;;
1354;SDS011;671;48.972;9.276;2022-10-04T07:24:06;0.50;;;0.50;;
1354;SDS011;671;48.972;9.276;2022-10-04T07:26:40;0.50;;;0.50;;
1354;SDS011;671;48.972;9.276;2022-10-04T07:34:53;0.40;;;0.40;;
1354;SDS011;671;48.972;9.276;2022-10-04T07:38:33;0.40;;;0.33;;
1354;SDS011;671;48.972;9.276;2022-10-04T07:43:31;0.50;;;0.50;;
1354;SDS011;671;48.972;9.276;2022-10-04T07:46:14;0.40;;;0.40;;
1354;SDS011;671;48.972;9.276;2022-10-04T07:49:02;0.50;;;0.50;;
1354;SDS011;671;48.972;9.276;2022-10-04T07:51:35;0.60;;;0.60;;
1354;SDS011;671;48.972;9.276;2022-10-04T08:00:19;0.50;;;0.50;;
1354;SDS011;671;48.972;9.276;2022-10-04T08:06:15;0.60;;;0.60;;
1354;SDS011;671;48.972;9.276;2022-10-04T08:19:43;0.40;;;0.40;;
1354;SDS011;671;48.972;9.276;2022-10-04T08:30:41;0.50;;;0.50;;
1354;SDS011;671;48.972;9.276;2022-10-04T08:39:17;0.40;;;0.40;;
1354;SDS011;671;48.972;9.276;2022-10-04T08:42:15;0.50;;;0.50;;
1354;SDS011;671;48.972;9.276;2022-10-04T08:59:50;0.40;;;0.40;;
1354;SDS011;671;48.972;9.276;2022-10-04T09:11:05;0.40;;;0.40;;
1354;SDS011;671;48.972;9.276;2022-10-04T09:13:42;0.40;;;0.40;;
1354;SDS011;671;48.972;9.276;2022-10-04T09:16:44;0.30;;;0.30;;
1354;SDS011;671;48.972;9.276;2022-10-04T09:19:19;0.40;;;0.30;;
1354;SDS011;671;48.972;9.276;2022-10-04T09:28:11;0.33;;;0.33;;
1354;SDS011;671;48.972;9.276;2022-10-04T09:36:18;0.30;;;0.30;;
1354;SDS011;671;48.972;9.276;2022-10-04T09:41:58;0.30;;;0.30;;
1354;SDS011;671;48.972;9.276;2022-10-04T10:14:59;0.30;;;0.30;;
1354;SDS011;671;48.972;9.276;2022-10-04T10:25:39;0.30;;;0.30;;
1354;SDS011;671;48.972;9.276;2022-10-04T10:34:18;0.30;;;0.30;;
1354;SDS011;671;48.972;9.276;2022-10-04T10:42:40;0.30;;;0.30;;
1354;SDS011;671;48.972;9.276;2022-10-04T10:51:00;0.30;;;0.30;;
1354;SDS011;671;48.972;9.276;2022-10-04T10:59:41;0.30;;;0.30;;
1354;SDS011;671;48.972;9.276;2022-10-04T11:05:08;0.30;;;0.30;;
1354;SDS011;671;48.972;9.276;2022-10-04T11:27:46;0.30;;;0.20;;
1354;SDS011;671;48.972;9.276;2022-10-04T11:33:02;0.30;;;0.20;;
1354;SDS011;671;48.972;9.276;2022-10-04T11:47:02;0.30;;;0.20;;
1354;SDS011;671;48.972;9.276;2022-10-04T11:55:54;0.30;;;0.20;;
1354;SDS011;671;48.972;9.276;2022-10-04T11:58:55;0.30;;;0.20;;
1354;SDS011;671;48.972;9.276;2022-10-04T12:10:09;0.30;;;0.20;;
1354;SDS011;671;48.972;9.276;2022-10-04T12:15:33;0.30;;;0.20;;
1354;SDS011;671;48.972;9.276;2022-10-04T12:23:59;0.30;;;0.20;;
1354;SDS011;671;48.972;9.276;2022-10-04T12:31:56;0.30;;;0.20;;
1354;SDS011;671;48.972;9.276;2022-10-04T12:37:02;0.30;;;0.20;;
1354;SDS011;671;48.972;9.276;2022-10-04T12:45:15;0.30;;;0.20;;
1354;SDS011;671;48.972;9.276;2022-10-04T12:51:00;0.30;;;0.20;;
1354;SDS011;671;48.972;9.276;2022-10-04T12:56:48;0.30;;;0.20;;
1354;SDS011;671;48.972;9.276;2022-10-04T13:04:50;0.30;;;0.20;;
1354;SDS011;671;48.972;9.276;2022-10-04T13:07:39;0.30;;;0.20;;
1354;SDS011;671;48.972;9.276;2022-10-04T13:23:35;0.30;;;0.20;;
1354;SDS011;671;48.972;9.276;2022-10-04T13:26:27;0.30;;;0.20;;
1354;SDS011;671;48.972;9.276;2022-10-04T13:29:16;0.30;;;0.20;;
1354;SDS011;671;48.972;9.276;2022-10-04T13:34:35;0.30;;;0.20;;
1354;SDS011;671;48.972;9.276;2022-10-04T13:46:03;0.30;;;0.20;;
1354;SDS011;671;48.972;9.276;2022-10-04T13:48:54;0.30;;;0.20;;
1354;SDS011;671;48.972;9.276;2022-10-04T13:53:59;0.30;;;0.20;;
1354;SDS011;671;48.972;9.276;2022-10-04T14:02:11;0.30;;;0.20;;
1354;SDS011;671;48.972;9.276;2022-10-04T14:19:26;0.30;;;0.20;;
1354;SDS011;671;48.972;9.276;2022-10-04T14:30:12;0.30;;;0.20;;
1354;SDS011;671;48.972;9.276;2022-10-04T14:35:51;0.30;;;0.20;;
1354;SDS011;671;48.972;9.276;2022-10-04T14:38:37;0.30;;;0.20;;
1354;SDS011;671;48.972;9.276;2022-10-04T14:44:42;0.30;;;0.20;;
1354;SDS011;671;48.972;9.276;2022-10-04T15:11:55;0.30;;;0.20;;
1354;SDS011;671;48.972;9.276;2022-10-04T15:14:29;0.30;;;0.20;;
1354;SDS011;671;48.972;9.276;2022-10-04T15:17:09;0.30;;;0.20;;
1354;SDS011;671;48.972;9.276;2022-10-04T15:19:55;0.30;;;0.20;;
1354;SDS011;671;48.972;9.276;2022-10-04T15:22:48;0.30;;;0.20;;
1354;SDS011;671;48.972;9.276;2022-10-04T15:25:38;0.30;;;0.20;;
1354;SDS011;671;48.972;9.276;2022-10-04T15:28:12;0.30;;;0.20;;
1354;SDS011;671;48.972;9.276;2022-10-04T15:38:46;0.30;;;0.20;;
1354;SDS011;671;48.972;9.276;2022-10-04T15:44:19;0.30;;;0.20;;
1354;SDS011;671;48.972;9.276;2022-10-04T15:46:54;0.30;;;0.20;;
1354;SDS011;671;48.972;9.276;2022-10-04T15:57:52;0.30;;;0.20;;
1354;SDS011;671;48.972;9.276;2022-10-04T16:00:33;0.30;;;0.20;;
1354;SDS011;671;48.972;9.276;2022-10-04T16:14:20;0.30;;;0.20;;
1354;SDS011;671;48.972;9.276;2022-10-04T16:22:33;0.30;;;0.30;;
1354;SDS011;671;48.972;9.276;2022-10-04T16:35:29;0.30;;;0.20;;
1354;SDS011;671;48.972;9.276;2022-10-04T16:48:38;0.30;;;0.20;;
1354;SDS011;671;48.972;9.276;2022-10-04T16:51:29;0.30;;;0.20;;
1354;SDS011;671;48.972;9.276;2022-10-04T17:19:08;0.30;;;0.20;;
1354;SDS011;671;48.972;9.276;2022-10-04T17:25:00;0.30;;;0.30;;
1354;SDS011;671;48.972;9.276;2022-10-04T17:27:49;0.30;;;0.20;;
1354;SDS011;671;48.972;9.276;2022-10-04T17:47:00;0.30;;;0.30;;
1354;SDS011;671;48.972;9.276;2022-10-04T17:49:50;0.40;;;0.40;;
1354;SDS011;671;48.972;9.276;2022-10-04T17:52:40;0.40;;;0.30;;
1354;SDS011;671;48.972;9.276;2022-10-04T17:55:35;0.40;;;0.30;;
1354;SDS011;671;48.972;9.276;2022-10-04T18:09:03;0.30;;;0.30;;
1354;SDS011;671;48.972;9.276;2022-10-04T18:14:58;0.30;;;0.30;;
1354;SDS011;671;48.972;9.276;2022-10-04T18:17:26;0.40;;;0.40;;
1354;SDS011;671;48.972;9.276;2022-10-04T18:22:47;0.40;;;0.40;;
1354;SDS011;671;48.972;9.276;2022-10-04T18:25:22;0.30;;;0.20;;
1354;SDS011;671;48.972;9.276;2022-10-04T18:33:12;0.40;;;0.40;;
1354;SDS011;671;48.972;9.276;2022-10-04T18:38:42;0.40;;;0.40;;
1354;SDS011;671;48.972;9.276;2022-10-04T18:41:25;0.40;;;0.40;;
1354;SDS011;671;48.972;9.276;2022-10-04T18:44:13;0.37;;;0.37;;
1354;SDS011;671;48.972;9.276;2022-10-04T18:46:41;0.40;;;0.30;;
1354;SDS011;671;48.972;9.276;2022-10-04T18:49:16;0.30;;;0.30;;
1354;SDS011;671;48.972;9.276;2022-10-04T18:51:52;0.30;;;0.30;;
1354;SDS011;671;48.972;9.276;2022-10-04T19:00:00;0.40;;;0.30;;
1354;SDS011;671;48.972;9.276;2022-10-04T19:05:57;0.50;;;0.50;;
1354;SDS011;671;48.972;9.276;2022-10-04T19:16:57;0.37;;;0.37;;
1354;SDS011;671;48.972;9.276;2022-10-04T19:22:01;0.40;;;0.40;;
1354;SDS011;671;48.972;9.276;2022-10-04T19:27:18;0.30;;;0.30;;
1354;SDS011;671;48.972;9.276;2022-10-04T19:48:48;0.40;;;0.40;;
1354;SDS011;671;48.972;9.276;2022-10-04T19:51:24;0.30;;;0.20;;
1354;SDS011;671;48.972;9.276;2022-10-04T19:54:02;0.30;;;0.30;;
1354;SDS011;671;48.972;9.276;2022-10-04T19:56:48;0.40;;;0.40;;
1354;SDS011;671;48.972;9.276;2022-10-04T19:59:16;0.30;;;0.30;;
1354;SDS011;671;48.972;9.276;2022-10-04T20:01:46;0.30;;;0.30;;
1354;SDS011;671;48.972;9.276;2022-10-04T20:04:15;0.30;;;0.30;;
1354;SDS011;671;48.972;9.276;2022-10-04T20:07:01;0.40;;;0.40;;
1354;SDS011;671;48.972;9.276;2022-10-04T20:15:11;0.40;;;0.40;;
1354;SDS011;671;48.972;9.276;2022-10-04T20:17:53;0.40;;;0.40;;
1354;SDS011;671;48.972;9.276;2022-10-04T20:24:06;0.47;;;0.47;;
1354;SDS011;671;48.972;9.276;2022-10-04T20:37:04;0.50;;;0.50;;
1354;SDS011;671;48.972;9.276;2022-10-04T20:50:15;0.40;;;0.40;;
1354;SDS011;671;48.972;9.276;2022-10-04T20:52:52;0.40;;;0.37;;
1354;SDS011;671;48.972;9.276;2022-10-04T20:55:23;0.40;;;0.40;;
1354;SDS011;671;48.972;9.276;2022-10-04T20:57:55;0.40;;;0.40;;
1354;SDS011;671;48.972;9.276;2022-10-04T21:00:26;0.40;;;0.40;;
1354;SDS011;671;48.972;9.276;2022-10-04T21:03:05;0.50;;;0.50;;
1354;SDS011;671;48.972;9.276;2022-10-04T21:05:32;0.30;;;0.30;;
1354;SDS011;671;48.972;9.276;2022-10-04T21:13:41;0.40;;;0.40;;
1354;SDS011;671;48.972;9.276;2022-10-04T21:16:33;0.30;;;0.20;;
1354;SDS011;671;48.972;9.276;2022-10-04T21:21:57;0.40;;;0.40;;
1354;SDS011;671;48.972;9.276;2022-10-04T21:24:41;0.40;;;0.30;;
1354;SDS011;671;48.972;9.276;2022-10-04T21:27:23;0.40;;;0.40;;
1354;SDS011;671;48.972;9.276;2022-10-04T21:29:53;0.40;;;0.40;;
1354;SDS011;671;48.972;9.276;2022-10-04T21:32:20;0.40;;;0.37;;
1354;SDS011;671;48.972;9.276;2022-10-04T21:34:47;0.40;;;0.40;;
1354;SDS011;671;48.972;9.276;2022-10-04T21:37:14;0.40;;;0.40;;
1354;SDS011;671;48.972;9.276;2022-10-04T21:39:41;0.40;;;0.40;;
1354;SDS011;671;48.972;9.276;2022-10-04T21:42:08;0.40;;;0.40;;
1354;SDS011;671;48.972;9.276;2022-10-04T21:44:35;0.40;;;0.40;;
1354;SDS011;671;48.972;9.276;2022-10-04T21:47:02;0.50;;;0.50;;
1354;SDS011;671;48.972;9.276;2022-10-04T21:49:28;0.40;;;0.37;;
1354;SDS011;671;48.972;9.276;2022-10-04T21:51:55;0.40;;;0.40;;
1354;SDS011;671;48.972;9.276;2022-10-04T21:54:21;0.50;;;0.50;;
1354;SDS011;671;48.972;9.276;2022-10-04T21:56:48;0.60;;;0.60;;
1354;SDS011;671;48.972;9.276;2022-10-04T21:59:14;0.40;;;0.40;;
1354;SDS011;671;48.972;9.276;2022-10-04T22:01:40;0.40;;;0.40;;
1354;SDS011;671;48.972;9.276;2022-10-04T22:04:07;0.33;;;0.30;;
1354;SDS011;671;48.972;9.276;2022-10-04T22:06:33;0.40;;;0.40;;
1354;SDS011;671;48.972;9.276;2022-10-04T22:09:00;0.40;;;0.40;;
1354;SDS011;671;48.972;9.276;2022-10-04T22:11:26;0.40;;;0.37;;
1354;SDS011;671;48.972;9.276;2022-10-04T22:13:53;0.33;;;0.30;;
1354;SDS011;671;48.972;9.276;2022-10-04T22:16:19;0.40;;;0.40;;
1354;SDS011;671;48.972;9.276;2022-10-04T22:18:45;0.40;;;0.40;;
1354;SDS011;671;48.972;9.276;2022-10-04T22:21:12;0.40;;;0.40;;
1354;SDS011;671;48.972;9.276;2022-10-04T22:23:39;0.43;;;0.43;;
1354;SDS011;671;48.972;9.276;2022-10-04T22:26:11;0.43;;;0.43;;
1354;SDS011;671;48.972;9.276;2022-10-04T22:28:44;0.33;;;0.30;;
1354;SDS011;671;48.972;9.276;2022-10-04T22:31:14;0.50;;;0.50;;
1354;SDS011;671;48.972;9.276;2022-10-04T22:33:43;0.40;;;0.40;;
1354;SDS011;671;48.972;9.276;2022-10-04T22:36:21;0.40;;;0.40;;
1354;SDS011;671;48.972;9.276;2022-10-04T22:39:09;0.40;;;0.40;;
1354;SDS011;671;48.972;9.276;2022-10-04T22:41:41;0.40;;;0.40;;
1354;SDS011;671;48.972;9.276;2022-10-04T22:46:58;0.40;;;0.40;;
1354;SDS011;671;48.972;9.276;2022-10-04T22:49:35;0.33;;;0.30;;
1354;SDS011;671;48.972;9.276;2022-10-04T22:52:12;0.40;;;0.40;;
1354;SDS011;671;48.972;9.276;2022-10-04T22:54:39;0.47;;;0.47;;
1354;SDS011;671;48.972;9.276;2022-10-04T22:57:10;0.50;;;0.50;;
1354;SDS011;671;48.972;9.276;2022-10-04T22:59:40;0.50;;;0.50;;
1354;SDS011;671;48.972;9.276;2022-10-04T23:02:15;0.43;;;0.43;;
1354;SDS011;671;48.972;9.276;2022-10-04T23:04:49;0.50;;;0.50;;
1354;SDS011;671;48.972;9.276;2022-10-04T23:07:18;0.50;;;0.50;;
1354;SDS011;671;48.972;9.276;2022-10-04T23:09:45;0.40;;;0.40;;
1354;SDS011;671;48.972;9.276;2022-10-04T23:12:12;0.50;;;0.50;;
1354;SDS011;671;48.972;9.276;2022-10-04T23:14:39;0.50;;;0.50;;
1354;SDS011;671;48.972;9.276;2022-10-04T23:17:12;0.40;;;0.40;;
1354;SDS011;671;48.972;9.276;2022-10-04T23:19:45;0.30;;;0.30;;
1354;SDS011;671;48.972;9.276;2022-10-04T23:22:16;0.40;;;0.40;;
1354;SDS011;671;48.972;9.276;2022-10-04T23:24:46;0.40;;;0.40;;
1354;SDS011;671;48.972;9.276;2022-10-04T23:27:13;0.50;;;0.50;;
1354;SDS011;671;48.972;9.276;2022-10-04T23:29:42;0.40;;;0.30;;
1354;SDS011;671;48.972;9.276;2022-10-04T23:32:16;0.37;;;0.37;;
1354;SDS011;671;48.972;9.276;2022-10-04T23:34:44;0.50;;;0.50;;
1354;SDS011;671;48.972;9.276;2022-10-04T23:39:49;0.30;;;0.30;;
1354;SDS011;671;48.972;9.276;2022-10-04T23:42:17;0.40;;;0.40;;
1354;SDS011;671;48.972;9.276;2022-10-04T23:44:45;0.40;;;0.40;;
1354;SDS011;671;48.972;9.276;2022-10-04T23:47:15;0.40;;;0.40;;
1354;SDS011;671;48.972;9.276;2022-10-04T23:49:44;0.57;;;0.57;;
1354;SDS011;671;48.972;9.276;2022-10-04T23:52:18;0.50;;;0.50;;
1354;SDS011;671;48.972;9.276;2022-10-04T23:54:50;0.40;;;0.40;;
1354;SDS011;671;48.972;9.276;2022-10-04T23:57:23;0.50;;;0.50;;
1354;SDS011;671;48.972;9.276;2022-10-04T23:59:51;0.43;;;0.43;;
